createdAt,value
2017-09-07T00:01:50.705Z,88.49
2017-09-07T00:04:19.146Z,88.11
2017-09-07T00:06:47.510Z,87.72
2017-09-07T00:09:16.034Z,87.54
2017-09-07T00:11:44.426Z,87.37
2017-09-07T00:14:12.821Z,88.00
2017-09-07T00:16:41.150Z,88.21
2017-09-07T00:19:09.602Z,89.33
2017-09-07T00:21:37.942Z,88.42
2017-09-07T00:24:06.382Z,87.85
2017-09-07T00:26:34.774Z,87.96
2017-09-07T00:29:03.193Z,87.73
2017-09-07T00:31:31.550Z,87.23
2017-09-07T00:33:59.942Z,88.27
2017-09-07T00:36:28.330Z,87.66
2017-09-07T00:38:56.738Z,86.78
2017-09-07T00:41:25.071Z,87.60
2017-09-07T00:43:53.511Z,87.04
2017-09-07T00:46:21.878Z,87.24
2017-09-07T00:48:50.290Z,87.84
2017-09-07T00:51:18.658Z,86.44
2017-09-07T00:53:47.078Z,87.39
2017-09-07T00:56:15.478Z,86.80
2017-09-07T00:58:43.842Z,88.86
2017-09-07T01:01:12.182Z,86.78
2017-09-07T01:03:40.546Z,87.05
2017-09-07T01:06:08.935Z,86.97
2017-09-07T01:08:37.342Z,86.98
2017-09-07T01:11:05.713Z,86.49
2017-09-07T01:13:34.098Z,87.47
2017-09-07T01:16:02.810Z,88.11
2017-09-07T01:18:31.157Z,88.57
2017-09-07T01:20:59.489Z,87.68
2017-09-07T01:23:27.838Z,87.86
2017-09-07T01:25:56.271Z,88.40
2017-09-07T01:28:24.762Z,87.80
2017-09-07T01:30:53.108Z,87.46
2017-09-07T01:33:21.450Z,87.15
2017-09-07T01:35:49.859Z,87.34
2017-09-07T01:38:18.227Z,87.40
2017-09-07T01:40:46.614Z,88.61
2017-09-07T01:43:15.016Z,87.95
2017-09-07T01:45:43.359Z,87.57
2017-09-07T01:48:23.579Z,87.72
2017-09-07T01:50:51.942Z,88.17
2017-09-07T01:53:20.350Z,87.29
2017-09-07T01:55:48.754Z,87.43
2017-09-07T01:58:17.238Z,87.72
2017-09-07T02:00:45.593Z,87.69
2017-09-07T02:03:13.974Z,87.88
2017-09-07T02:05:42.318Z,87.73
2017-09-07T02:08:10.699Z,88.17
2017-09-07T02:10:39.052Z,87.96
2017-09-07T02:13:07.490Z,88.83
2017-09-07T02:15:35.873Z,88.04
2017-09-07T02:18:04.274Z,87.54
2017-09-07T02:20:32.666Z,87.97
2017-09-07T02:23:01.455Z,88.02
2017-09-07T02:25:29.863Z,87.69
2017-09-07T02:27:58.202Z,88.54
2017-09-07T02:30:26.651Z,88.75
2017-09-07T02:32:54.999Z,88.79
2017-09-07T02:35:23.414Z,88.04
2017-09-07T02:37:51.758Z,87.61
2017-09-07T02:40:20.152Z,87.71
2017-09-07T02:42:48.585Z,88.31
2017-09-07T02:45:16.978Z,88.70
2017-09-07T02:47:45.362Z,88.74
2017-09-07T02:50:13.768Z,88.56
2017-09-07T02:52:42.150Z,88.89
2017-09-07T02:55:10.528Z,88.12
2017-09-07T02:57:38.964Z,87.86
2017-09-07T03:00:07.316Z,87.89
2017-09-07T03:02:35.721Z,89.11
2017-09-07T03:05:04.116Z,88.10
2017-09-07T03:07:32.623Z,87.74
2017-09-07T03:10:00.966Z,87.31
2017-09-07T03:12:29.392Z,87.51
2017-09-07T03:14:57.738Z,87.63
2017-09-07T03:17:26.171Z,87.70
2017-09-07T03:19:54.578Z,87.90
2017-09-07T03:22:22.950Z,87.29
2017-09-07T03:24:51.322Z,87.73
2017-09-07T03:27:19.734Z,87.34
2017-09-07T03:29:48.110Z,87.38
2017-09-07T03:32:16.460Z,87.90
2017-09-07T03:34:44.843Z,87.81
2017-09-07T03:37:13.219Z,87.53
2017-09-07T03:39:41.876Z,87.99
2017-09-07T03:42:10.323Z,87.34
2017-09-07T03:44:38.786Z,87.49
2017-09-07T03:47:07.183Z,87.68
2017-09-07T03:49:35.563Z,87.66
2017-09-07T03:52:03.907Z,88.15
2017-09-07T03:54:32.287Z,87.44
2017-09-07T03:57:00.662Z,87.83
2017-09-07T03:59:29.040Z,87.67
2017-09-07T04:01:57.445Z,87.43
2017-09-07T04:04:25.807Z,88.40
2017-09-07T04:06:54.202Z,88.10
2017-09-07T04:09:22.542Z,87.69
2017-09-07T04:11:50.923Z,87.56
2017-09-07T04:14:19.366Z,87.10
2017-09-07T04:16:47.747Z,86.83
2017-09-07T04:19:16.154Z,87.78
2017-09-07T04:21:44.535Z,87.65
2017-09-07T04:24:12.942Z,87.17
2017-09-07T04:26:41.307Z,87.51
2017-09-07T04:29:09.642Z,87.45
2017-09-07T04:31:37.985Z,87.58
2017-09-07T04:34:06.359Z,87.31
2017-09-07T04:36:34.720Z,87.03
2017-09-07T04:39:03.111Z,87.91
2017-09-07T04:41:31.482Z,87.63
2017-09-07T04:43:59.845Z,88.02
2017-09-07T04:46:28.667Z,87.99
2017-09-07T04:48:57.039Z,87.76
2017-09-07T04:51:25.416Z,87.86
2017-09-07T04:53:53.838Z,87.53
2017-09-07T04:56:22.950Z,87.91
2017-09-07T04:58:51.341Z,88.68
2017-09-07T05:01:19.738Z,88.53
2017-09-07T05:03:48.126Z,88.50
2017-09-07T05:06:16.521Z,88.96
2017-09-07T05:08:44.907Z,89.02
2017-09-07T05:11:13.294Z,88.97
2017-09-07T05:13:41.693Z,88.74
2017-09-07T05:16:10.286Z,88.60
2017-09-07T05:18:38.631Z,88.83
2017-09-07T05:21:07.050Z,89.00
2017-09-07T05:23:35.509Z,89.19
2017-09-07T05:26:03.950Z,89.21
2017-09-07T05:28:32.356Z,89.26
2017-09-07T05:31:00.731Z,89.87
2017-09-07T05:33:29.115Z,89.18
2017-09-07T05:35:57.469Z,89.07
2017-09-07T05:38:25.812Z,89.61
2017-09-07T05:40:54.155Z,90.24
2017-09-07T05:43:22.503Z,88.19
2017-09-07T05:45:50.903Z,89.11
2017-09-07T05:48:19.251Z,89.50
2017-09-07T05:50:47.594Z,89.84
2017-09-07T05:53:16.055Z,89.49
2017-09-07T05:55:44.430Z,89.44
2017-09-07T05:58:12.820Z,89.25
2017-09-07T06:00:41.169Z,89.44
2017-09-07T06:03:09.545Z,88.93
2017-09-07T06:05:37.884Z,88.66
2017-09-07T06:08:06.230Z,88.56
2017-09-07T06:10:34.606Z,89.00
2017-09-07T06:13:03.286Z,89.24
2017-09-07T06:15:31.677Z,88.64
2017-09-07T06:18:00.062Z,88.61
2017-09-07T06:20:28.412Z,88.53
2017-09-07T06:22:56.846Z,89.86
2017-09-07T06:25:25.190Z,89.67
2017-09-07T06:27:53.554Z,89.45
2017-09-07T06:30:21.911Z,89.79
2017-09-07T06:32:50.301Z,89.73
2017-09-07T06:35:18.806Z,89.64
2017-09-07T06:37:47.193Z,89.75
2017-09-07T06:40:15.549Z,89.96
2017-09-07T06:42:44.008Z,90.21
2017-09-07T06:45:12.366Z,89.61
2017-09-07T06:47:40.710Z,89.39
2017-09-07T06:50:09.155Z,88.69
2017-09-07T06:52:37.554Z,87.99
2017-09-07T06:55:05.930Z,88.51
2017-09-07T06:57:34.274Z,88.23
2017-09-07T07:00:03.019Z,86.29
2017-09-07T07:02:31.394Z,87.17
2017-09-07T07:04:59.750Z,87.01
2017-09-07T07:07:28.123Z,88.21
2017-09-07T07:09:56.474Z,88.73
2017-09-07T07:12:25.286Z,87.27
2017-09-07T07:14:53.678Z,87.40
2017-09-07T07:17:22.202Z,87.81
2017-09-07T07:19:50.746Z,87.61
2017-09-07T07:22:19.153Z,88.28
2017-09-07T07:24:47.538Z,87.78
2017-09-07T07:27:15.897Z,87.65
2017-09-07T07:29:44.343Z,87.11
2017-09-07T07:32:12.704Z,86.39
2017-09-07T07:34:41.075Z,83.71
2017-09-07T07:37:09.510Z,84.06
2017-09-07T07:39:37.863Z,84.94
2017-09-07T07:42:06.263Z,86.24
2017-09-07T07:44:34.607Z,85.10
2017-09-07T07:47:03.278Z,85.36
2017-09-07T07:49:31.666Z,86.66
2017-09-07T07:52:00.014Z,84.51
2017-09-07T07:54:28.403Z,84.90
2017-09-07T07:56:56.785Z,83.66
2017-09-07T07:59:25.177Z,85.22
2017-09-07T08:01:53.525Z,84.30
2017-09-07T08:04:21.914Z,81.14
2017-09-07T08:06:50.306Z,80.96
2017-09-07T08:09:18.711Z,79.98
2017-09-07T08:11:47.323Z,78.02
2017-09-07T08:14:15.786Z,80.03
2017-09-07T08:16:44.194Z,80.10
2017-09-07T08:19:12.539Z,76.54
2017-09-07T08:21:40.954Z,76.41
2017-09-07T08:24:09.358Z,74.26
2017-09-07T08:26:37.842Z,76.52
2017-09-07T08:29:06.203Z,76.60
2017-09-07T08:31:34.631Z,76.75
2017-09-07T08:34:03.002Z,78.70
2017-09-07T08:36:31.418Z,75.98
2017-09-07T08:38:59.779Z,76.00
2017-09-07T08:41:28.120Z,71.36
2017-09-07T08:43:56.486Z,69.06
2017-09-07T08:46:24.984Z,64.00
2017-09-07T08:48:53.323Z,63.91
2017-09-07T08:51:21.800Z,64.18
2017-09-07T08:53:50.130Z,66.65
2017-09-07T08:56:18.573Z,68.65
2017-09-07T08:58:46.939Z,69.74
2017-09-07T09:01:15.322Z,72.61
2017-09-07T09:03:43.670Z,74.20
2017-09-07T09:06:12.011Z,73.77
2017-09-07T09:08:40.395Z,74.40
2017-09-07T09:11:40.843Z,73.45
2017-09-07T09:14:09.211Z,74.73
2017-09-07T09:16:37.550Z,70.36
2017-09-07T09:19:05.915Z,72.80
2017-09-07T09:21:34.311Z,73.46
2017-09-07T09:24:02.650Z,76.29
2017-09-07T09:26:31.186Z,76.97
2017-09-07T09:28:59.526Z,77.84
2017-09-07T09:31:27.910Z,78.47
2017-09-07T09:33:56.362Z,76.82
2017-09-07T09:36:24.758Z,77.60
2017-09-07T09:38:53.142Z,77.92
2017-09-07T09:41:21.478Z,77.39
2017-09-07T09:43:49.830Z,79.03
2017-09-07T09:46:18.671Z,78.50
2017-09-07T09:48:47.018Z,77.29
2017-09-07T09:51:15.358Z,76.38
2017-09-07T09:53:43.727Z,78.24
2017-09-07T09:56:12.115Z,77.58
2017-09-07T09:58:40.458Z,76.38
2017-09-07T10:01:08.874Z,78.01
2017-09-07T10:03:37.243Z,76.28
2017-09-07T10:06:05.707Z,74.86
2017-09-07T10:08:34.154Z,77.44
2017-09-07T10:11:02.521Z,74.73
2017-09-07T10:13:30.938Z,76.01
2017-09-07T10:15:59.291Z,75.78
2017-09-07T10:18:27.671Z,76.99
2017-09-07T10:20:56.015Z,77.15
2017-09-07T10:23:24.380Z,74.96
2017-09-07T10:25:52.755Z,77.50
2017-09-07T10:28:21.129Z,73.46
2017-09-07T10:30:49.474Z,75.29
2017-09-07T10:33:17.841Z,76.17
2017-09-07T10:35:46.183Z,75.12
2017-09-07T10:38:14.654Z,73.89
2017-09-07T10:40:42.993Z,72.66
2017-09-07T10:43:11.388Z,69.08
2017-09-07T10:45:39.761Z,66.92
2017-09-07T10:48:08.086Z,67.64
2017-09-07T10:50:36.426Z,68.33
2017-09-07T10:53:04.770Z,66.49
2017-09-07T10:55:33.170Z,67.18
2017-09-07T10:58:01.519Z,68.93
2017-09-07T11:00:29.921Z,70.31
2017-09-07T11:02:58.352Z,68.81
2017-09-07T11:05:27.155Z,67.84
2017-09-07T11:07:55.497Z,69.61
2017-09-07T11:10:23.934Z,69.35
2017-09-07T11:12:52.644Z,70.44
2017-09-07T11:15:21.027Z,70.82
2017-09-07T11:17:49.419Z,70.51
2017-09-07T11:20:17.756Z,68.67
2017-09-07T11:22:46.118Z,67.07
2017-09-07T11:25:14.462Z,66.76
2017-09-07T11:27:43.395Z,68.04
2017-09-07T11:30:11.787Z,67.55
2017-09-07T11:32:40.171Z,66.99
2017-09-07T11:35:08.567Z,68.20
2017-09-07T11:37:36.951Z,64.81
2017-09-07T11:40:05.334Z,63.09
2017-09-07T11:42:34.755Z,63.79
2017-09-07T11:45:03.120Z,62.82
2017-09-07T11:47:31.642Z,61.10
2017-09-07T11:49:59.978Z,61.77
2017-09-07T11:52:28.458Z,61.77
2017-09-07T11:54:56.816Z,62.26
2017-09-07T11:57:25.149Z,64.10
2017-09-07T11:59:53.522Z,67.13
2017-09-07T12:02:21.870Z,65.78
2017-09-07T12:04:50.201Z,64.63
2017-09-07T12:07:18.548Z,65.39
2017-09-07T12:09:46.888Z,66.71
2017-09-07T12:12:15.251Z,65.70
2017-09-07T12:14:43.626Z,65.51
2017-09-07T12:17:11.964Z,67.04
2017-09-07T12:19:40.315Z,68.51
2017-09-07T12:22:08.701Z,68.51
2017-09-07T12:24:37.054Z,68.90
2017-09-07T12:27:05.395Z,68.77
2017-09-07T12:29:33.766Z,68.74
2017-09-07T12:32:02.431Z,66.66
2017-09-07T12:34:30.795Z,64.73
2017-09-07T12:36:59.170Z,66.54
2017-09-07T12:39:27.506Z,64.65
2017-09-07T12:41:55.854Z,64.83
2017-09-07T12:44:24.190Z,64.14
2017-09-07T12:46:52.630Z,64.93
2017-09-07T12:49:21.023Z,66.04
2017-09-07T12:51:49.390Z,66.96
2017-09-07T12:54:17.734Z,68.10
2017-09-07T12:56:46.121Z,69.70
2017-09-07T12:59:14.543Z,69.66
2017-09-07T13:01:43.006Z,69.11
2017-09-07T13:04:11.381Z,67.47
2017-09-07T13:06:39.713Z,69.42
2017-09-07T13:09:08.194Z,68.89
2017-09-07T13:11:36.535Z,69.52
2017-09-07T13:14:04.883Z,69.03
2017-09-07T13:16:33.226Z,67.77
2017-09-07T13:19:01.594Z,67.82
2017-09-07T13:21:30.006Z,66.68
2017-09-07T13:23:58.397Z,68.24
2017-09-07T13:26:26.806Z,68.24
2017-09-07T13:28:55.190Z,67.38
2017-09-07T13:31:23.550Z,67.95
2017-09-07T13:33:51.930Z,65.67
2017-09-07T13:36:20.291Z,64.15
2017-09-07T13:38:48.630Z,63.02
2017-09-07T13:41:17.031Z,63.92
2017-09-07T13:43:45.366Z,63.50
2017-09-07T13:46:13.783Z,62.48
2017-09-07T13:48:42.154Z,62.78
2017-09-07T13:51:10.518Z,60.92
2017-09-07T13:53:38.858Z,62.09
2017-09-07T13:56:07.239Z,61.55
2017-09-07T13:58:35.582Z,62.43
2017-09-07T14:01:03.923Z,60.76
2017-09-07T14:03:32.262Z,61.50
2017-09-07T14:06:05.830Z,62.07
2017-09-07T14:08:34.254Z,59.71
2017-09-07T14:11:02.750Z,60.84
2017-09-07T14:13:31.119Z,60.75
2017-09-07T14:15:59.458Z,60.17
2017-09-07T14:18:27.798Z,60.80
2017-09-07T14:20:56.337Z,59.01
2017-09-07T14:23:24.670Z,59.86
2017-09-07T14:25:53.014Z,61.17
2017-09-07T14:28:21.387Z,60.95
2017-09-07T14:30:49.758Z,61.35
2017-09-07T14:33:18.518Z,62.87
2017-09-07T14:35:46.972Z,62.76
2017-09-07T14:38:15.319Z,62.46
2017-09-07T14:40:43.658Z,64.19
2017-09-07T14:43:12.046Z,63.48
2017-09-07T14:45:40.382Z,63.24
2017-09-07T14:48:08.781Z,63.09
2017-09-07T14:50:37.214Z,62.54
2017-09-07T14:53:05.695Z,63.78
2017-09-07T14:55:34.033Z,63.37
2017-09-07T14:58:02.365Z,63.15
2017-09-07T15:00:30.710Z,64.31
2017-09-07T15:02:59.047Z,63.70
2017-09-07T15:05:27.457Z,62.65
2017-09-07T15:07:55.794Z,62.09
2017-09-07T15:10:24.137Z,62.94
2017-09-07T15:12:52.474Z,62.79
2017-09-07T15:15:20.917Z,62.64
2017-09-07T15:17:49.409Z,62.97
2017-09-07T15:20:17.750Z,63.69
2017-09-07T15:22:46.090Z,63.57
2017-09-07T15:25:14.434Z,63.62
2017-09-07T15:27:42.770Z,63.17
2017-09-07T15:30:11.142Z,63.51
2017-09-07T15:32:39.530Z,64.29
2017-09-07T15:35:07.867Z,63.56
2017-09-07T15:37:36.342Z,62.71
2017-09-07T15:40:04.714Z,62.45
2017-09-07T15:42:33.049Z,62.00
2017-09-07T15:45:01.511Z,63.06
2017-09-07T15:47:30.115Z,63.40
2017-09-07T15:49:58.449Z,63.32
2017-09-07T15:52:26.782Z,64.51
2017-09-07T15:54:55.126Z,64.16
2017-09-07T15:57:23.487Z,63.71
2017-09-07T15:59:57.086Z,64.43
2017-09-07T16:02:25.457Z,66.04
2017-09-07T16:04:53.842Z,64.88
2017-09-07T16:07:22.259Z,65.29
2017-09-07T16:09:50.618Z,65.40
2017-09-07T16:12:18.983Z,66.08
2017-09-07T16:14:47.337Z,66.32
2017-09-07T16:17:15.720Z,67.33
2017-09-07T16:19:44.090Z,66.55
2017-09-07T16:22:12.511Z,66.63
2017-09-07T16:24:40.874Z,67.25
2017-09-07T16:27:09.287Z,67.09
2017-09-07T16:29:37.658Z,66.92
2017-09-07T16:32:06.122Z,67.13
2017-09-07T16:34:34.471Z,68.11
2017-09-07T16:37:02.827Z,67.93
2017-09-07T16:39:31.167Z,67.95
2017-09-07T16:41:59.634Z,67.55
2017-09-07T16:44:27.974Z,69.34
2017-09-07T16:46:56.354Z,68.95
2017-09-07T16:49:24.723Z,69.48
2017-09-07T16:51:53.057Z,69.44
2017-09-07T16:54:21.499Z,68.93
2017-09-07T16:56:49.837Z,68.46
2017-09-07T16:59:18.182Z,68.95
2017-09-07T17:01:46.526Z,69.16
2017-09-07T17:04:14.879Z,69.20
2017-09-07T17:06:43.242Z,69.37
2017-09-07T17:09:11.634Z,69.58
2017-09-07T17:11:39.979Z,69.50
2017-09-07T17:14:08.349Z,70.79
2017-09-07T17:16:36.728Z,71.01
2017-09-07T17:19:05.092Z,71.02
2017-09-07T17:21:33.429Z,70.97
2017-09-07T17:24:01.880Z,71.87
2017-09-07T17:26:30.222Z,72.36
2017-09-07T17:28:58.590Z,73.31
2017-09-07T17:31:26.967Z,73.11
2017-09-07T17:33:55.312Z,72.89
2017-09-07T17:36:23.650Z,73.36
2017-09-07T17:38:52.053Z,73.12
2017-09-07T17:41:20.384Z,72.67
2017-09-07T17:43:48.745Z,73.11
2017-09-07T17:46:17.090Z,74.17
2017-09-07T17:48:45.471Z,73.74
2017-09-07T17:51:13.815Z,74.17
2017-09-07T17:53:42.146Z,74.48
2017-09-07T17:56:10.486Z,74.69
2017-09-07T17:58:38.862Z,74.72
2017-09-07T18:01:07.257Z,75.06
2017-09-07T18:03:35.630Z,74.26
2017-09-07T18:06:03.974Z,74.86
2017-09-07T18:08:32.322Z,74.95
2017-09-07T18:11:00.658Z,75.44
2017-09-07T18:13:29.027Z,75.34
2017-09-07T18:15:57.368Z,75.56
2017-09-07T18:18:25.800Z,75.07
2017-09-07T18:20:54.176Z,75.47
2017-09-07T18:23:22.529Z,75.31
2017-09-07T18:25:50.946Z,75.78
2017-09-07T18:28:19.718Z,75.59
2017-09-07T18:30:48.142Z,76.00
2017-09-07T18:33:16.650Z,75.73
2017-09-07T18:35:45.239Z,75.67
2017-09-07T18:38:13.621Z,76.05
2017-09-07T18:40:41.960Z,75.74
2017-09-07T18:43:10.406Z,75.32
2017-09-07T18:45:38.783Z,74.81
2017-09-07T18:48:07.123Z,74.76
2017-09-07T18:50:35.457Z,75.71
2017-09-07T18:53:03.817Z,75.25
2017-09-07T18:55:32.182Z,75.66
2017-09-07T18:58:00.526Z,76.30
2017-09-07T19:00:28.934Z,76.21
2017-09-07T19:02:57.275Z,76.75
2017-09-07T19:05:25.669Z,76.91
2017-09-07T19:07:54.058Z,76.25
2017-09-07T19:10:22.449Z,76.35
2017-09-07T19:12:50.899Z,77.19
2017-09-07T19:15:19.238Z,76.85
2017-09-07T19:17:47.670Z,76.39
2017-09-07T19:20:16.010Z,76.80
2017-09-07T19:22:44.454Z,76.97
2017-09-07T19:25:12.858Z,76.79
2017-09-07T19:27:41.202Z,77.06
2017-09-07T19:30:09.570Z,77.81
2017-09-07T19:32:37.930Z,77.74
2017-09-07T19:35:06.304Z,78.33
2017-09-07T19:37:34.711Z,78.49
2017-09-07T19:40:03.095Z,78.44
2017-09-07T19:42:31.492Z,78.26
2017-09-07T19:44:59.874Z,79.03
2017-09-07T19:47:28.216Z,78.75
2017-09-07T19:49:56.595Z,78.92
2017-09-07T19:52:24.980Z,79.04
2017-09-07T19:54:53.333Z,79.33
2017-09-07T19:57:21.695Z,79.65
2017-09-07T19:59:50.067Z,79.37
2017-09-07T20:02:18.453Z,80.15
2017-09-07T20:04:46.810Z,80.37
2017-09-07T20:07:15.267Z,80.40
2017-09-07T20:09:43.610Z,79.84
2017-09-07T20:12:12.073Z,79.63
2017-09-07T20:14:40.430Z,79.69
2017-09-07T20:17:08.869Z,79.18
2017-09-07T20:19:37.201Z,79.62
2017-09-07T20:22:05.642Z,79.11
2017-09-07T20:24:33.983Z,79.62
2017-09-07T20:27:02.322Z,79.39
2017-09-07T20:29:30.663Z,80.03
2017-09-07T20:31:59.041Z,79.97
2017-09-07T20:34:27.532Z,80.63
2017-09-07T20:36:56.108Z,80.74
2017-09-07T20:39:24.467Z,81.36
2017-09-07T20:41:52.807Z,81.38
2017-09-07T20:44:21.166Z,82.04
2017-09-07T20:46:49.538Z,82.48
2017-09-07T20:49:17.879Z,82.72
2017-09-07T20:51:46.242Z,82.49
2017-09-07T20:54:14.638Z,82.66
2017-09-07T20:56:43.030Z,82.85
2017-09-07T20:59:11.410Z,83.20
2017-09-07T21:01:39.750Z,82.61
2017-09-07T21:04:08.188Z,83.06
2017-09-07T21:06:38.663Z,82.84
2017-09-07T21:09:07.222Z,82.70
2017-09-07T21:11:35.579Z,83.07
2017-09-07T21:14:03.943Z,83.10
2017-09-07T21:16:32.310Z,83.40
2017-09-07T21:19:00.794Z,83.68
2017-09-07T21:21:29.207Z,83.56
2017-09-07T21:23:57.576Z,84.00
2017-09-07T21:26:25.987Z,83.90
2017-09-07T21:28:54.343Z,83.75
2017-09-07T21:31:22.706Z,83.85
2017-09-07T21:33:51.047Z,84.19
2017-09-07T21:36:19.394Z,83.85
2017-09-07T21:38:47.726Z,84.04
2017-09-07T21:41:16.078Z,83.96
2017-09-07T21:43:44.547Z,84.05
2017-09-07T21:46:12.878Z,84.15
2017-09-07T21:48:41.222Z,84.01
2017-09-07T21:51:09.578Z,84.02
2017-09-07T21:53:37.978Z,84.13
2017-09-07T21:56:06.479Z,84.06
2017-09-07T21:58:34.859Z,84.39
2017-09-07T22:01:03.214Z,84.46
2017-09-07T22:03:31.555Z,84.25
2017-09-07T22:05:59.918Z,84.20
2017-09-07T22:08:29.242Z,84.25
2017-09-07T22:10:57.735Z,84.09
2017-09-07T22:13:26.128Z,84.47
2017-09-07T22:15:54.526Z,84.62
2017-09-07T22:18:22.894Z,84.72
2017-09-07T22:20:54.571Z,84.36
2017-09-07T22:23:22.946Z,84.28
2017-09-07T22:25:51.303Z,84.40
2017-09-07T22:28:19.634Z,84.52
2017-09-07T22:30:48.150Z,84.61
2017-09-07T22:33:17.618Z,84.74
2017-09-07T22:35:46.841Z,84.76
2017-09-07T22:38:15.738Z,84.85
2017-09-07T22:40:44.328Z,84.71
2017-09-07T22:43:12.823Z,84.69
2017-09-07T22:45:41.783Z,84.60
2017-09-07T22:48:10.389Z,84.65
2017-09-07T22:50:39.723Z,84.69
2017-09-07T22:53:08.772Z,84.38
2017-09-07T22:55:37.617Z,84.27
2017-09-07T22:58:06.839Z,84.08
2017-09-07T23:00:35.675Z,83.84
2017-09-07T23:03:05.262Z,83.61
2017-09-07T23:05:33.806Z,83.32
2017-09-07T23:08:02.506Z,82.87
2017-09-07T23:10:30.851Z,82.96
2017-09-07T23:12:59.324Z,82.98
2017-09-07T23:15:27.658Z,82.54
2017-09-07T23:17:56.034Z,82.44
2017-09-07T23:20:24.462Z,82.12
2017-09-07T23:22:52.806Z,81.86
2017-09-07T23:25:21.145Z,82.18
2017-09-07T23:27:49.517Z,82.07
2017-09-07T23:30:17.852Z,82.34
2017-09-07T23:32:46.330Z,82.45
2017-09-07T23:35:14.744Z,82.19
2017-09-07T23:37:43.082Z,81.79
2017-09-07T23:40:11.454Z,81.82
2017-09-07T23:42:39.790Z,81.99
2017-09-07T23:45:08.159Z,82.10
2017-09-07T23:47:36.567Z,82.29
2017-09-07T23:50:04.962Z,81.76
2017-09-07T23:52:33.323Z,81.66
2017-09-07T23:55:01.668Z,81.40
2017-09-07T23:57:30.038Z,81.44
2017-09-07T23:59:58.431Z,81.37
